Terminal Aerodrome Forecast
Issued by NWS

Home | Current Version | Previous Version | Text Only | Print | Product List | Glossary On
Versions: 1 2 3 4 5 6 7 8 9 10 11 12 13 14 15
580
FTUS45 KVEF 292320
TAFHND
TAF
KHND 292320Z 3000/3024 VRB05KT P6SM SCT250
     FM300400 18007KT P6SM BKN250
     FM301500 19012G18KT P6SM BKN250
     FM301800 22026G34KT P6SM BKN250
     FM302100 25036G46KT P6SM SCT250=

USA.gov is the U.S. government's official web portal to all federal, state and local government web resources and services.